Time,TemperatureF,DewpointF,PressureIn,WindDirection,WindDirectionDegrees,WindSpeedMPH,WindSpeedGustMPH,Humidity,HourlyPrecipIn,Conditions,Clouds,dailyrainin,SoftwareType,DateUTC
2013-08-16 00:29:00,59.9,54.0,30.06,SE,134,0.0,3.0,82,0.00,,,0.00,weatherlink.com 1.10,2013-08-16 04:29:00,
2013-08-16 00:44:00,59.4,54.0,30.06,ESE,117,1.0,1.0,82,0.00,,,0.00,weatherlink.com 1.10,2013-08-16 04:44:00,
2013-08-16 00:59:00,59.1,54.0,30.06,ESE,104,0.0,2.0,84,0.00,,,0.00,weatherlink.com 1.10,2013-08-16 04:59:00,
2013-08-16 01:14:00,59.0,54.0,30.06,ESE,122,0.0,0.0,83,0.00,,,0.00,weatherlink.com 1.10,2013-08-16 05:14:00,
2013-08-16 01:29:00,58.5,54.0,30.06,SSW,206,0.0,0.0,84,0.00,,,0.00,weatherlink.com 1.10,2013-08-16 05:29:00,
2013-08-16 01:44:00,58.5,54.0,30.06,South,170,0.0,0.0,84,0.00,,,0.00,weatherlink.com 1.10,2013-08-16 05:44:00,
2013-08-16 01:59:00,58.9,54.0,30.06,NE,46,0.0,0.0,83,0.00,,,0.00,weatherlink.com 1.10,2013-08-16 05:59:00,
2013-08-16 02:14:00,59.6,54.0,30.06,ESE,105,0.0,2.0,81,0.00,,,0.00,weatherlink.com 1.10,2013-08-16 06:14:00,
2013-08-16 02:29:00,59.9,54.0,30.06,East,85,1.0,2.0,80,0.00,,,0.00,weatherlink.com 1.10,2013-08-16 06:29:00,
2013-08-16 02:44:00,60.0,53.0,30.06,SSE,148,0.0,2.0,79,0.00,,,0.00,weatherlink.com 1.10,2013-08-16 06:44:00,
2013-08-16 02:59:00,59.5,53.0,30.05,East,99,0.0,3.0,80,0.00,,,0.00,weatherlink.com 1.10,2013-08-16 06:59:00,
2013-08-16 03:14:00,59.0,53.0,30.05,ESE,111,2.0,2.0,81,0.00,,,0.00,weatherlink.com 1.10,2013-08-16 07:14:00,
2013-08-16 03:29:00,58.4,53.0,30.04,East,79,2.0,2.0,82,0.00,,,0.00,weatherlink.com 1.10,2013-08-16 07:29:00,
2013-08-16 03:44:00,58.4,53.0,30.04,SE,126,0.0,3.0,82,0.00,,,0.00,weatherlink.com 1.10,2013-08-16 07:44:00,
2013-08-16 03:59:00,58.8,53.0,30.04,ESE,107,0.0,3.0,81,0.00,,,0.00,weatherlink.com 1.10,2013-08-16 07:59:00,
2013-08-16 04:14:00,58.0,53.0,30.04,SE,128,0.0,2.0,83,0.00,,,0.00,weatherlink.com 1.10,2013-08-16 08:14:00,
2013-08-16 04:29:00,58.0,53.0,30.04,ESE,103,0.0,3.0,84,0.00,,,0.00,weatherlink.com 1.10,2013-08-16 08:29:00,
2013-08-16 04:44:00,58.1,53.0,30.04,ESE,117,0.0,2.0,83,0.00,,,0.00,weatherlink.com 1.10,2013-08-16 08:44:00,
2013-08-16 04:59:00,58.2,53.0,30.05,East,101,1.0,2.0,83,0.00,,,0.00,weatherlink.com 1.10,2013-08-16 08:59:00,
2013-08-16 05:14:00,58.0,53.0,30.05,SSE,162,0.0,2.0,84,0.00,,,0.00,weatherlink.com 1.10,2013-08-16 09:14:00,
2013-08-16 05:29:00,57.6,53.0,30.05,SE,135,1.0,3.0,85,0.00,,,0.00,weatherlink.com 1.10,2013-08-16 09:29:00,
2013-08-16 05:44:00,57.1,53.0,30.05,ESE,122,0.0,3.0,86,0.00,,,0.00,weatherlink.com 1.10,2013-08-16 09:44:00,
2013-08-16 05:59:00,56.7,53.0,30.05,SE,133,0.0,2.0,87,0.00,,,0.00,weatherlink.com 1.10,2013-08-16 09:59:00,
2013-08-16 06:14:00,56.8,53.0,30.05,ESE,106,2.0,3.0,87,0.00,,,0.00,weatherlink.com 1.10,2013-08-16 10:14:00,
2013-08-16 06:29:00,56.7,53.0,30.05,SE,128,1.0,2.0,87,0.00,,,0.00,weatherlink.com 1.10,2013-08-16 10:29:00,
2013-08-16 06:44:00,56.5,53.0,30.06,SE,127,0.0,2.0,87,0.00,,,0.00,weatherlink.com 1.10,2013-08-16 10:44:00,
2013-08-16 06:59:00,56.0,53.0,30.06,SE,125,0.0,0.0,88,0.00,,,0.00,weatherlink.com 1.10,2013-08-16 10:59:00,
2013-08-16 07:14:00,55.8,53.0,30.07,SE,128,0.0,0.0,89,0.00,,,0.00,weatherlink.com 1.10,2013-08-16 11:14:00,
2013-08-16 07:29:00,56.2,53.0,30.07,ESE,107,0.0,0.0,89,0.00,,,0.00,weatherlink.com 1.10,2013-08-16 11:29:00,
2013-08-16 07:44:00,58.4,54.0,30.07,SE,128,1.0,2.0,85,0.00,,,0.00,weatherlink.com 1.10,2013-08-16 11:44:00,
2013-08-16 07:59:00,59.5,54.0,30.07,East,94,1.0,3.0,83,0.00,,,0.00,weatherlink.com 1.10,2013-08-16 11:59:00,
2013-08-16 08:14:00,60.9,55.0,30.08,ESE,111,1.0,3.0,81,0.00,,,0.00,weatherlink.com 1.10,2013-08-16 12:14:00,
2013-08-16 08:29:00,61.9,56.0,30.08,ESE,114,1.0,3.0,80,0.00,,,0.00,weatherlink.com 1.10,2013-08-16 12:29:00,
2013-08-16 08:44:00,62.6,56.0,30.08,East,93,2.0,4.0,79,0.00,,,0.00,weatherlink.com 1.10,2013-08-16 12:44:00,
2013-08-16 08:59:00,63.2,57.0,30.09,ENE,63,3.0,4.0,79,0.00,,,0.00,weatherlink.com 1.10,2013-08-16 12:59:00,
2013-08-16 09:15:00,64.2,57.0,30.09,East,94,2.0,3.0,78,0.00,,,0.00,weatherlink.com 1.10,2013-08-16 13:15:00,
2013-08-16 09:30:00,65.5,58.0,30.09,ESE,109,3.0,3.0,77,0.00,,,0.00,weatherlink.com 1.10,2013-08-16 13:30:00,
2013-08-16 09:45:00,66.4,58.0,30.09,NNW,333,1.0,4.0,75,0.00,,,0.00,weatherlink.com 1.10,2013-08-16 13:45:00,
2013-08-16 10:00:00,68.4,59.0,30.09,SE,134,1.0,2.0,72,0.00,,,0.00,weatherlink.com 1.10,2013-08-16 14:00:00,
2013-08-16 10:15:00,69.0,59.0,30.09,WSW,245,2.0,4.0,71,0.00,,,0.00,weatherlink.com 1.10,2013-08-16 14:15:00,
2013-08-16 10:30:00,69.1,60.0,30.09,ENE,59,1.0,5.0,72,0.00,,,0.00,weatherlink.com 1.10,2013-08-16 14:30:00,
2013-08-16 10:45:00,69.7,59.0,30.09,East,87,2.0,5.0,68,0.00,,,0.00,weatherlink.com 1.10,2013-08-16 14:45:00,
2013-08-16 11:00:00,70.5,59.0,30.09,SE,142,2.0,6.0,66,0.00,,,0.00,weatherlink.com 1.10,2013-08-16 15:00:00,
2013-08-16 11:15:00,71.5,59.0,30.09,SSE,147,1.0,6.0,66,0.00,,,0.00,weatherlink.com 1.10,2013-08-16 15:15:00,
2013-08-16 11:30:00,72.1,61.0,30.09,East,101,2.0,4.0,67,0.00,,,0.00,weatherlink.com 1.10,2013-08-16 15:30:00,
2013-08-16 11:45:00,72.8,59.0,30.09,ESE,106,4.0,5.0,62,0.00,,,0.00,weatherlink.com 1.10,2013-08-16 15:45:00,
2013-08-16 12:00:00,71.8,57.0,30.09,North,5,5.0,6.0,60,0.00,,,0.00,weatherlink.com 1.10,2013-08-16 16:00:00,
2013-08-16 12:15:00,72.7,58.0,30.08,East,99,4.0,7.0,61,0.00,,,0.00,weatherlink.com 1.10,2013-08-16 16:15:00,
2013-08-16 12:30:00,72.4,58.0,30.09,East,86,2.0,10.0,61,0.00,,,0.00,weatherlink.com 1.10,2013-08-16 16:30:00,
2013-08-16 12:45:00,72.3,59.0,30.08,SE,125,2.0,6.0,63,0.00,,,0.00,weatherlink.com 1.10,2013-08-16 16:45:00,
2013-08-16 13:00:00,74.2,59.0,30.08,ESE,105,3.0,7.0,60,0.00,,,0.00,weatherlink.com 1.10,2013-08-16 17:00:00,
2013-08-16 13:15:00,74.2,56.0,30.07,East,89,3.0,6.0,54,0.00,,,0.00,weatherlink.com 1.10,2013-08-16 17:15:00,
2013-08-16 13:30:00,74.3,58.0,30.08,NE,55,0.0,7.0,58,0.00,,,0.00,weatherlink.com 1.10,2013-08-16 17:30:00,
2013-08-16 13:45:00,74.9,59.0,30.08,SE,139,1.0,4.0,58,0.00,,,0.00,weatherlink.com 1.10,2013-08-16 17:45:00,
2013-08-16 14:00:00,75.1,59.0,30.07,SW,215,1.0,5.0,58,0.00,,,0.00,weatherlink.com 1.10,2013-08-16 18:00:00,
2013-08-16 14:15:00,74.9,58.0,30.07,ENE,75,4.0,7.0,55,0.00,,,0.00,weatherlink.com 1.10,2013-08-16 18:15:00,
2013-08-16 14:30:00,74.1,58.0,30.07,SSE,160,1.0,4.0,57,0.00,,,0.00,weatherlink.com 1.10,2013-08-16 18:30:00,
2013-08-16 14:45:00,76.2,59.0,30.07,North,5,5.0,7.0,55,0.00,,,0.00,weatherlink.com 1.10,2013-08-16 18:45:00,
2013-08-16 15:00:00,75.9,57.0,30.07,East,101,4.0,5.0,52,0.00,,,0.00,weatherlink.com 1.10,2013-08-16 19:00:00,
2013-08-16 15:15:00,76.1,59.0,30.06,East,82,3.0,8.0,55,0.00,,,0.00,weatherlink.com 1.10,2013-08-16 19:15:00,
2013-08-16 15:30:00,75.3,56.0,30.05,ESE,105,3.0,6.0,52,0.00,,,0.00,weatherlink.com 1.10,2013-08-16 19:30:00,
2013-08-16 15:45:00,75.2,58.0,30.05,SE,141,1.0,6.0,55,0.00,,,0.00,weatherlink.com 1.10,2013-08-16 19:45:00,
2013-08-16 16:00:00,75.4,58.0,30.05,WSW,255,0.0,5.0,56,0.00,,,0.00,weatherlink.com 1.10,2013-08-16 20:00:00,
2013-08-16 16:15:00,74.9,58.0,30.05,ESE,122,4.0,6.0,56,0.00,,,0.00,weatherlink.com 1.10,2013-08-16 20:15:00,
2013-08-16 16:30:00,75.5,59.0,30.05,SE,127,3.0,5.0,57,0.00,,,0.00,weatherlink.com 1.10,2013-08-16 20:30:00,
2013-08-16 16:45:00,74.9,57.0,30.05,East,85,3.0,7.0,54,0.00,,,0.00,weatherlink.com 1.10,2013-08-16 20:45:00,
2013-08-16 17:00:00,75.4,58.0,30.05,ESE,121,1.0,3.0,56,0.00,,,0.00,weatherlink.com 1.10,2013-08-16 21:00:00,
2013-08-16 17:15:00,74.4,59.0,30.05,ESE,108,2.0,4.0,58,0.00,,,0.00,weatherlink.com 1.10,2013-08-16 21:15:00,
2013-08-16 17:30:00,74.5,59.0,30.06,East,88,1.0,3.0,58,0.00,,,0.00,weatherlink.com 1.10,2013-08-16 21:30:00,
2013-08-16 17:45:00,74.2,59.0,30.06,SE,126,2.0,3.0,59,0.00,,,0.00,weatherlink.com 1.10,2013-08-16 21:45:00,
2013-08-16 18:00:00,74.5,60.0,30.05,ESE,105,1.0,2.0,60,0.00,,,0.00,weatherlink.com 1.10,2013-08-16 22:00:00,
2013-08-16 18:15:00,74.2,59.0,30.05,East,94,1.0,3.0,60,0.00,,,0.00,weatherlink.com 1.10,2013-08-16 22:15:00,
2013-08-16 18:30:00,74.0,60.0,30.05,NNE,14,1.0,1.0,61,0.00,,,0.00,weatherlink.com 1.10,2013-08-16 22:30:00,
2013-08-16 18:45:00,73.4,59.0,30.05,ESE,111,1.0,4.0,62,0.00,,,0.00,weatherlink.com 1.10,2013-08-16 22:45:00,
2013-08-16 19:00:00,72.7,60.0,30.05,SE,132,0.0,2.0,64,0.00,,,0.00,weatherlink.com 1.10,2013-08-16 23:00:00,
2013-08-16 19:15:00,72.1,59.0,30.05,NNE,23,2.0,2.0,63,0.00,,,0.00,weatherlink.com 1.10,2013-08-16 23:15:00,
2013-08-16 19:30:00,71.2,58.0,30.05,NE,44,0.0,1.0,63,0.00,,,0.00,weatherlink.com 1.10,2013-08-16 23:30:00,
2013-08-16 19:46:00,70.6,58.0,30.05,ESE,114,0.0,1.0,65,0.00,,,0.00,weatherlink.com 1.10,2013-08-16 23:46:00,
2013-08-16 20:01:00,70.1,58.0,30.05,East,82,1.0,2.0,66,0.00,,,0.00,weatherlink.com 1.10,2013-08-17 00:01:00,
2013-08-16 20:16:00,69.4,58.0,30.06,ESE,103,0.0,2.0,67,0.00,,,0.00,weatherlink.com 1.10,2013-08-17 00:16:00,
2013-08-16 20:31:00,68.6,58.0,30.06,East,98,0.0,1.0,69,0.00,,,0.00,weatherlink.com 1.10,2013-08-17 00:31:00,
2013-08-16 20:46:00,67.7,58.0,30.06,NNE,25,0.0,1.0,71,0.00,,,0.00,weatherlink.com 1.10,2013-08-17 00:46:00,
2013-08-16 21:01:00,67.2,58.0,30.06,North,349,0.0,2.0,73,0.00,,,0.00,weatherlink.com 1.10,2013-08-17 01:01:00,
2013-08-16 21:16:00,66.4,58.0,30.06,NNW,336,0.0,2.0,74,0.00,,,0.00,weatherlink.com 1.10,2013-08-17 01:16:00,
2013-08-16 21:31:00,65.9,58.0,30.07,East,82,0.0,1.0,75,0.00,,,0.00,weatherlink.com 1.10,2013-08-17 01:31:00,
2013-08-16 21:46:00,65.6,58.0,30.07,East,86,0.0,2.0,76,0.00,,,0.00,weatherlink.com 1.10,2013-08-17 01:46:00,
2013-08-16 22:01:00,65.8,57.0,30.07,North,355,0.0,3.0,74,0.00,,,0.00,weatherlink.com 1.10,2013-08-17 02:01:00,
2013-08-16 22:16:00,65.4,57.0,30.08,North,8,3.0,3.0,74,0.00,,,0.00,weatherlink.com 1.10,2013-08-17 02:16:00,
2013-08-16 22:31:00,65.1,57.0,30.08,East,101,0.0,2.0,74,0.00,,,0.00,weatherlink.com 1.10,2013-08-17 02:31:00,
2013-08-16 22:46:00,64.9,56.0,30.09,NNW,347,1.0,2.0,74,0.00,,,0.00,weatherlink.com 1.10,2013-08-17 02:46:00,
2013-08-16 23:01:00,64.5,56.0,30.09,SE,128,0.0,1.0,74,0.00,,,0.00,weatherlink.com 1.10,2013-08-17 03:01:00,
2013-08-16 23:16:00,63.9,56.0,30.09,SW,225,0.0,2.0,75,0.00,,,0.00,weatherlink.com 1.10,2013-08-17 03:16:00,
2013-08-16 23:31:00,63.9,55.0,30.08,East,98,0.0,2.0,74,0.00,,,0.00,weatherlink.com 1.10,2013-08-17 03:31:00,
2013-08-16 23:46:00,63.8,55.0,30.08,East,99,4.0,4.0,74,0.00,,,0.00,weatherlink.com 1.10,2013-08-17 03:46:00,